Pagrindinis puslapis
METAR-TAF:

METAR-TAF

Oro uostai :

Vinycia, Ukraina

platuma: 49-14-23N, ilguma: 028-36-50E, Aukštis: 974 m

Dabartinis oras

Ataskaita buvo paskelbta 29 minutes, ne 08:30 UTC
Vėjas 4 kt iš Rytų/Pietryčių, svyruoja nuo Rytų ir Pietų/Pietryčių
Temperatūra 18°C
Drėgmė 68%
Slėgis 1020 hPa
Matomumas 10 km arba daugiau
nėra debesų žemiau 1500 m ir nėra kamuolinių lietaus debesų

METAR: UKWW 180830Z 11002MPS 080V160 CAVOK 18/12 Q1020 NOSIG

Laikas: 11:59 (08:59 UTC)

Prognozė

Ataskaita buvo paskelbta 49 minutes, ne 08:10 UTC
Prognozė galioja nuo 18 metu 09 UTC su 18 metu 18 UTC
Vėjas 2 kt nuo kintamojo kryptimis
Matomumas 10 km arba daugiau
Išsisklaidę debesys ne aukštis 4000 ft

TAF: UKWW 180810Z 1809/1818 VRB01MPS 9999 SCT040

Orai ataskaitas ir orų prognozės (METAR, TAF).

turimą stotys yra geltonos ir raudonos taškus žemėlapyje.

Perkelti pele per norėdami pamatyti stoties vardą.

Tada spustelėkite, norėdami matyti oro stebėjimo ir prognozės.

Norėdami pakeisti žemėlapį: spustelėkite ant žalios mygtukų su juodo kryžiaus žemyn,; žalią mygtuką su brūkšneliu, jei norite nutolinti; arba žalių rodyklių gretimoms žemėlapius.


METAR-TAF: